Pagrindinis puslapis
METAR-TAF:

METAR-TAF

Oro uostai :

Amanas, Jordanija

platuma: 31-59N, ilguma: 035-59E, Aukštis: 767 m

Dabartinis oras

Ataskaita buvo paskelbta 46 minutes, ne 00:00 UTC
Vėjas 5 kt iš Pietvakarių
Temperatūra 9°C
Drėgmė 71%
Slėgis 1015 hPa
Matomumas: 8000 m
Mažai debesys ne aukštis 3000 ft

METAR: OJAM 290000Z 23005KT 8000 FEW030 09/04 Q1015 NOSIG

Laikas: 03:46 (00:46 UTC)

Prognozė

Ataskaita buvo paskelbta 1 valandą ir 40 minutes, ne 23:06 UTC
Prognozė galioja nuo 29 metu 00 UTC su 30 metu 06 UTC
Vėjas 10 kt iš Vakarų/Šiaurės Vakarų
Matomumas: 7000 m
Mažai debesys ne aukštis 2500 ft
Tikimybė 30%
nuo 29 metu 02 UTC su 29 metu 05 UTC
Matomumas: 3000 m
rūkana
Tapsmas
nuo 29 metu 05 UTC su 29 metu 07 UTC
Matomumas: 5000 m
Išsisklaidę debesys ne aukštis 3000 ft
migla
Laikinai
nuo 29 metu 12 UTC su 30 metu 03 UTC
Vėjas 18 kt iš Vakarų
Matomumas: 4000 m
Dulkes pustymas

TAF: OJAM 282306Z 2900/3006 29010KT 7000 FEW025 PROB30 2902/2905 3000 BR BECMG 2905/2907 5000 HZ SCT030 TEMPO 2912/3003 28018KT 4000 BLDU

Orai ataskaitas ir orų prognozės (METAR, TAF).

turimą stotys yra geltonos ir raudonos taškus žemėlapyje.

Perkelti pele per norėdami pamatyti stoties vardą.

Tada spustelėkite, norėdami matyti oro stebėjimo ir prognozės.

Norėdami pakeisti žemėlapį: spustelėkite ant žalios mygtukų su juodo kryžiaus žemyn,; žalią mygtuką su brūkšneliu, jei norite nutolinti; arba žalių rodyklių gretimoms žemėlapius.


METAR-TAF: